Deford, Michigan
Current Conditions -  °F | °C
As of 1:35 PM on Thursday 29 Jan 2015 (Local Time) from KCFS Reporting Station
Light Snow Light Snow  
Wind Chill: 29°   Ceiling: 1800
Heat Index: 29°   Visibility: 5mi
Dew Point: 26°   Wind: 3mph
Humidity: 88%   Direction: 290°WNW
Pressure: 29.72"   Gusts: NA
Location:  43.51°N, 83.19°W
Report Text: KCFS 291835Z AUTO 29003KT 5SM -SN OVC018 M01/M03 A2972 RMK AO2 T10151032
Loading
Personal Weather Stations






























Interactive Weather Map New forecast layout! Learn more

10-Day Weather Forecast

Advertisements
Track Severe Weather on mobile